Lattasburg, Ohio
Current Conditions -  °F | °C
As of 10:56 PM on Tuesday 21 Oct 2014 (Local Time) from KBJJ Reporting Station
Overcast Overcast  
Wind Chill: 43°   Ceiling: 700
Heat Index: 47°   Visibility: 10mi
Dew Point: 44°   Wind: 9mph
Humidity: 90%   Direction: 350°N
Pressure: 30.11"   Gusts: NA
Location:  40.9441°N, 82.1006°W
Report Text: KBJJ 220256Z AUTO 35008KT 10SM OVC007 08/07 A3011 RMK AO2 SLP198 60001 T00830067 51015 TSNO
Loading
Personal Weather Stations






























Interactive Weather Map
Tropical Storm Tracking
New forecast layout! Learn more

10-Day Weather Forecast

Advertisements
Track Severe Weather on mobile